createdAt,value
2017-07-20T00:01:53.961Z,0
2017-07-20T00:04:18.639Z,0
2017-07-20T00:06:43.298Z,0
2017-07-20T00:09:07.899Z,0
2017-07-20T00:11:32.550Z,0
2017-07-20T00:13:57.135Z,0
2017-07-20T00:16:21.894Z,0
2017-07-20T00:18:38.109Z,0
2017-07-20T00:21:02.764Z,0
2017-07-20T00:23:18.978Z,0
2017-07-20T00:25:35.170Z,0
2017-07-20T00:29:44.480Z,0
2017-07-20T00:32:09.162Z,0
2017-07-20T00:36:44.025Z,0
2017-07-20T00:41:10.315Z,0
2017-07-20T00:43:35.043Z,0
2017-07-20T00:45:59.737Z,0
2017-07-20T00:48:15.911Z,0
2017-07-20T00:50:40.561Z,0
2017-07-20T00:52:48.258Z,0
2017-07-20T00:55:04.387Z,0
2017-07-20T00:57:29.030Z,0
2017-07-20T00:59:53.690Z,0
2017-07-20T01:02:09.875Z,0
2017-07-20T01:04:34.535Z,0
2017-07-20T01:06:50.796Z,0
2017-07-20T01:09:07.094Z,0
2017-07-20T01:11:14.930Z,0
2017-07-20T01:13:31.209Z,0
2017-07-20T01:15:47.512Z,0
2017-07-20T01:18:12.200Z,0
2017-07-20T01:20:28.507Z,0
2017-07-20T01:22:44.704Z,0
2017-07-20T01:25:00.975Z,0
2017-07-20T01:27:17.194Z,0
2017-07-20T01:29:41.874Z,0
2017-07-20T01:32:06.638Z,0
2017-07-20T01:34:31.372Z,0
2017-07-20T01:36:56.065Z,0
2017-07-20T01:39:20.765Z,0
2017-07-20T01:41:36.983Z,0
2017-07-20T01:44:01.765Z,0
2017-07-20T01:46:26.565Z,0
2017-07-20T01:48:42.770Z,0
2017-07-20T01:51:07.455Z,0
2017-07-20T01:53:32.236Z,0
2017-07-20T01:55:56.952Z,0
2017-07-20T01:58:13.164Z,0
2017-07-20T02:00:37.843Z,0
2017-07-20T02:03:02.529Z,0
2017-07-20T02:05:27.218Z,0
2017-07-20T02:07:51.927Z,0
2017-07-20T02:10:16.604Z,0
2017-07-20T02:12:41.347Z,0
2017-07-20T02:14:57.553Z,0
2017-07-20T02:18:58.062Z,0
2017-07-20T02:21:14.210Z,0
2017-07-20T02:23:38.758Z,0
2017-07-20T02:26:03.355Z,0
2017-07-20T02:28:27.933Z,0
2017-07-20T02:30:52.503Z,0
2017-07-20T02:33:17.105Z,0
2017-07-20T02:35:41.693Z,0
2017-07-20T02:37:49.469Z,0
2017-07-20T02:40:05.622Z,0
2017-07-20T02:42:30.172Z,0
2017-07-20T02:44:54.799Z,0
2017-07-20T02:47:19.479Z,0
2017-07-20T02:49:35.710Z,0
2017-07-20T02:51:51.902Z,0
2017-07-20T02:54:16.460Z,0
2017-07-20T02:56:41.053Z,0
2017-07-20T02:58:57.252Z,0
2017-07-20T03:01:21.843Z,0
2017-07-20T03:03:38.031Z,0
2017-07-20T03:06:02.638Z,0
2017-07-20T03:08:27.233Z,0
2017-07-20T03:10:51.859Z,0
2017-07-20T03:13:16.421Z,0
2017-07-20T03:15:41.005Z,0
2017-07-20T03:18:05.599Z,0
2017-07-20T03:20:21.732Z,0
2017-07-20T03:22:46.398Z,0
2017-07-20T03:25:10.897Z,0
2017-07-20T03:27:27.012Z,0
2017-07-20T03:29:51.689Z,0
2017-07-20T03:32:16.283Z,0
2017-07-20T03:34:40.917Z,0
2017-07-20T03:39:07.066Z,0
2017-07-20T03:41:31.665Z,0
2017-07-20T03:43:56.227Z,0
2017-07-20T03:48:30.733Z,0
2017-07-20T03:50:55.301Z,0
2017-07-20T03:53:19.863Z,0
2017-07-20T03:55:44.429Z,0
2017-07-20T03:58:08.980Z,0
2017-07-20T04:00:25.119Z,0
2017-07-20T04:02:49.713Z,0
2017-07-20T04:05:14.301Z,0
2017-07-20T04:07:30.432Z,0
2017-07-20T04:09:54.990Z,0
2017-07-20T04:12:19.516Z,0
2017-07-20T04:14:44.096Z,0
2017-07-20T04:17:08.608Z,0
2017-07-20T04:19:33.260Z,0
2017-07-20T04:23:59.314Z,0
2017-07-20T04:26:23.880Z,0
2017-07-20T04:28:48.383Z,0
2017-07-20T04:31:12.927Z,0
2017-07-20T04:33:37.593Z,5
2017-07-20T04:36:02.186Z,5
2017-07-20T04:38:18.303Z,5
2017-07-20T04:40:42.863Z,5
2017-07-20T04:43:07.465Z,5
2017-07-20T04:45:32.055Z,5
2017-07-20T04:47:56.659Z,5
2017-07-20T04:50:21.257Z,10
2017-07-20T04:52:37.322Z,10
2017-07-20T04:55:01.943Z,10
2017-07-20T04:57:26.539Z,10
2017-07-20T04:59:42.660Z,10
2017-07-20T05:02:07.231Z,10
2017-07-20T05:04:31.923Z,15
2017-07-20T05:06:48.147Z,15
2017-07-20T05:09:04.372Z,15
2017-07-20T05:11:28.905Z,20
2017-07-20T05:13:53.510Z,30
2017-07-20T05:16:18.113Z,40
2017-07-20T05:18:42.697Z,40
2017-07-20T05:21:07.285Z,45
2017-07-20T05:23:32.003Z,50
2017-07-20T05:25:56.683Z,50
2017-07-20T05:28:13.832Z,55
2017-07-20T05:30:38.496Z,50
2017-07-20T05:32:54.726Z,50
2017-07-20T05:35:19.318Z,55
2017-07-20T05:37:43.942Z,70
2017-07-20T05:40:08.698Z,85
2017-07-20T05:42:33.425Z,115
2017-07-20T05:44:49.742Z,155
2017-07-20T05:47:14.553Z,555
2017-07-20T05:51:49.800Z,435
2017-07-20T05:54:15.117Z,170
2017-07-20T05:56:40.438Z,505
2017-07-20T05:59:05.772Z,695
2017-07-20T06:01:22.710Z,415
2017-07-20T06:03:39.642Z,290
2017-07-20T06:05:56.673Z,395
2017-07-20T06:08:13.671Z,340
2017-07-20T06:10:39.189Z,250
2017-07-20T06:13:04.563Z,335
2017-07-20T06:15:21.441Z,305
2017-07-20T06:17:46.803Z,495
2017-07-20T06:24:24.743Z,155
2017-07-20T06:26:50.064Z,165
2017-07-20T06:29:15.329Z,135
2017-07-20T06:31:40.528Z,335
2017-07-20T06:34:05.854Z,585
2017-07-20T06:36:31.186Z,340
2017-07-20T06:38:56.608Z,385
2017-07-20T06:41:21.996Z,505
2017-07-20T06:43:38.975Z,505
2017-07-20T06:46:04.681Z,475
2017-07-20T06:48:30.509Z,550
2017-07-20T06:50:56.496Z,450
2017-07-20T06:53:22.585Z,895
2017-07-20T06:55:40.378Z,1555
2017-07-20T06:58:06.681Z,1790
2017-07-20T07:00:24.571Z,1445
2017-07-20T07:04:53.812Z,630
2017-07-20T07:07:20.658Z,510
2017-07-20T07:09:38.860Z,450
2017-07-20T07:11:48.506Z,300
2017-07-20T07:14:15.055Z,300
2017-07-20T07:16:41.463Z,200
2017-07-20T07:19:07.663Z,170
2017-07-20T07:21:33.653Z,165
2017-07-20T07:23:59.467Z,150
2017-07-20T07:26:16.609Z,130
2017-07-20T07:28:42.248Z,125
2017-07-20T07:33:09.967Z,130
2017-07-20T07:35:35.263Z,250
2017-07-20T07:38:00.561Z,230
2017-07-20T07:40:25.860Z,250
2017-07-20T07:42:51.115Z,325
2017-07-20T07:45:16.390Z,445
2017-07-20T07:47:33.212Z,300
2017-07-20T07:49:59.761Z,240
2017-07-20T07:52:25.157Z,210
2017-07-20T07:54:50.631Z,190
2017-07-20T07:58:52.713Z,145
2017-07-20T08:01:18.057Z,105
2017-07-20T08:03:34.836Z,80
2017-07-20T08:05:51.557Z,65
2017-07-20T08:08:08.259Z,60
2017-07-20T08:10:34.983Z,50
2017-07-20T08:13:00.116Z,40
2017-07-20T08:15:25.217Z,35
2017-07-20T08:17:41.816Z,30
2017-07-20T08:22:19.508Z,20
2017-07-20T08:24:44.479Z,20
2017-07-20T08:27:09.406Z,25
2017-07-20T08:29:34.334Z,20
2017-07-20T08:31:59.311Z,15
2017-07-20T08:34:24.171Z,20
2017-07-20T08:36:49.130Z,25
2017-07-20T08:39:13.981Z,25
2017-07-20T08:41:30.264Z,25
2017-07-20T08:43:54.994Z,20
2017-07-20T08:46:19.781Z,20
2017-07-20T08:48:44.432Z,20
2017-07-20T08:51:09.138Z,25
2017-07-20T08:53:33.797Z,25
2017-07-20T08:55:58.407Z,20
2017-07-20T08:58:23.001Z,20
2017-07-20T09:00:47.653Z,20
2017-07-20T09:06:58.259Z,15
2017-07-20T09:09:22.877Z,20
2017-07-20T09:11:47.484Z,25
2017-07-20T09:14:12.082Z,30
2017-07-20T09:16:36.649Z,30
2017-07-20T09:20:37.580Z,25
2017-07-20T09:23:02.174Z,30
2017-07-20T09:25:26.720Z,30
2017-07-20T09:27:42.777Z,35
2017-07-20T09:30:07.283Z,40
2017-07-20T09:32:31.799Z,45
2017-07-20T09:34:56.262Z,45
2017-07-20T09:37:20.764Z,50
2017-07-20T09:39:45.236Z,50
2017-07-20T09:42:01.233Z,50
2017-07-20T09:46:01.564Z,50
2017-07-20T09:48:17.596Z,45
2017-07-20T09:50:42.023Z,50
2017-07-20T09:53:06.461Z,55
2017-07-20T09:55:30.923Z,60
2017-07-20T09:57:55.382Z,70
2017-07-20T10:00:19.887Z,65
2017-07-20T10:02:44.363Z,60
2017-07-20T10:05:08.894Z,65
2017-07-20T10:07:24.990Z,70
2017-07-20T10:09:41.088Z,70
2017-07-20T10:12:06.715Z,65
2017-07-20T10:14:31.298Z,65
2017-07-20T10:16:55.913Z,65
2017-07-20T10:21:22.574Z,60
2017-07-20T10:23:38.743Z,65
2017-07-20T10:28:05.461Z,80
2017-07-20T10:32:32.078Z,90
2017-07-20T10:34:56.707Z,95
2017-07-20T10:37:21.355Z,90
2017-07-20T10:39:45.948Z,85
2017-07-20T10:42:02.134Z,95
2017-07-20T10:44:26.847Z,90
2017-07-20T10:50:30.945Z,85
2017-07-20T10:55:06.323Z,60
2017-07-20T10:57:31.111Z,50
2017-07-20T10:59:55.874Z,40
2017-07-20T11:02:20.582Z,40
2017-07-20T11:04:45.398Z,50
2017-07-20T11:07:10.097Z,55
2017-07-20T11:09:34.777Z,65
2017-07-20T11:11:51.024Z,70
2017-07-20T11:14:15.627Z,85
2017-07-20T11:16:40.355Z,95
2017-07-20T11:20:41.379Z,115
2017-07-20T11:27:09.639Z,105
2017-07-20T11:29:34.383Z,115
2017-07-20T11:31:59.121Z,130
2017-07-20T11:34:23.870Z,145
2017-07-20T11:36:48.694Z,140
2017-07-20T11:39:13.492Z,145
2017-07-20T11:41:38.303Z,150
2017-07-20T11:44:03.142Z,155
2017-07-20T11:46:27.994Z,160
2017-07-20T11:48:35.888Z,165
2017-07-20T11:51:00.729Z,160
2017-07-20T11:53:25.575Z,165
2017-07-20T11:55:50.363Z,160
2017-07-20T12:00:17.261Z,170
2017-07-20T12:02:42.171Z,175
2017-07-20T12:04:58.587Z,170
2017-07-20T12:07:23.498Z,140
2017-07-20T12:09:48.408Z,130
2017-07-20T12:12:13.338Z,125
2017-07-20T12:14:38.233Z,130
2017-07-20T12:16:54.704Z,145
2017-07-20T12:19:19.556Z,170
2017-07-20T12:21:44.439Z,160
2017-07-20T12:24:09.291Z,120
2017-07-20T12:26:25.707Z,125
2017-07-20T12:28:42.152Z,135
2017-07-20T12:31:07.036Z,130
2017-07-20T12:33:31.885Z,115
2017-07-20T12:35:56.715Z,100
2017-07-20T12:38:21.600Z,95
2017-07-20T12:40:37.969Z,130
2017-07-20T12:43:02.831Z,120
2017-07-20T12:45:19.214Z,115
2017-07-20T12:47:44.080Z,95
2017-07-20T12:50:08.954Z,120
2017-07-20T12:52:33.873Z,110
2017-07-20T12:57:09.413Z,105
2017-07-20T12:59:34.303Z,100
2017-07-20T13:01:50.687Z,95
2017-07-20T13:04:15.533Z,90
2017-07-20T13:06:40.363Z,90
2017-07-20T13:08:56.764Z,95
2017-07-20T13:11:21.633Z,90
2017-07-20T13:13:46.473Z,90
2017-07-20T13:20:23.620Z,85
2017-07-20T13:22:40.029Z,85
2017-07-20T13:25:04.878Z,85
2017-07-20T13:27:29.743Z,85
2017-07-20T13:29:54.579Z,60
2017-07-20T13:34:04.034Z,70
2017-07-20T13:36:28.905Z,65
2017-07-20T13:38:53.703Z,80
2017-07-20T13:41:18.558Z,95
2017-07-20T13:43:43.345Z,90
2017-07-20T13:46:08.218Z,95
2017-07-20T13:48:24.582Z,90
2017-07-20T13:50:49.454Z,95
2017-07-20T13:53:14.254Z,95
2017-07-20T13:55:39.123Z,85
2017-07-20T13:58:04.005Z,100
2017-07-20T14:00:28.914Z,85
2017-07-20T14:02:53.945Z,95
2017-07-20T14:05:10.358Z,85
2017-07-20T14:07:35.283Z,105
2017-07-20T14:10:00.266Z,80
2017-07-20T14:12:16.800Z,85
2017-07-20T14:14:41.803Z,110
2017-07-20T14:17:06.895Z,115
2017-07-20T14:19:31.838Z,105
2017-07-20T14:21:48.399Z,95
2017-07-20T14:24:04.886Z,85
2017-07-20T14:28:31.559Z,50
2017-07-20T14:30:56.532Z,35
2017-07-20T14:33:21.463Z,20
2017-07-20T14:35:46.310Z,15
2017-07-20T14:38:11.113Z,15
2017-07-20T14:40:35.881Z,10
2017-07-20T14:43:00.615Z,5
2017-07-20T14:45:16.879Z,5
2017-07-20T14:47:41.477Z,5
2017-07-20T14:50:06.148Z,5
2017-07-20T14:52:30.701Z,5
2017-07-20T14:54:55.229Z,10
2017-07-20T14:57:19.696Z,15
2017-07-20T14:59:44.275Z,15
2017-07-20T15:02:00.313Z,20
2017-07-20T15:04:16.408Z,20
2017-07-20T15:06:40.988Z,25
2017-07-20T15:09:05.463Z,25
2017-07-20T15:11:29.928Z,25
2017-07-20T15:13:54.368Z,30
2017-07-20T15:16:18.741Z,35
2017-07-20T15:18:43.263Z,40
2017-07-20T15:21:07.798Z,45
2017-07-20T15:23:23.799Z,45
2017-07-20T15:25:48.263Z,55
2017-07-20T15:28:12.914Z,55
2017-07-20T15:30:37.663Z,50
2017-07-20T15:33:02.180Z,55
2017-07-20T15:35:26.666Z,55
2017-07-20T15:40:31.198Z,70
2017-07-20T15:42:56.849Z,80
2017-07-20T15:45:21.578Z,95
2017-07-20T15:47:46.183Z,100
2017-07-20T15:50:02.323Z,95
2017-07-20T15:52:26.982Z,90
2017-07-20T15:54:51.771Z,85
2017-07-20T15:57:16.427Z,85
2017-07-20T15:59:41.102Z,80
2017-07-20T16:02:05.762Z,80
2017-07-20T16:04:30.363Z,75
2017-07-20T16:06:46.496Z,75
2017-07-20T16:09:02.595Z,75
2017-07-20T16:11:19.469Z,75
2017-07-20T16:13:44.104Z,75
2017-07-20T16:16:08.831Z,75
2017-07-20T16:18:33.521Z,75
2017-07-20T16:20:49.754Z,75
2017-07-20T16:23:05.913Z,75
2017-07-20T16:25:30.535Z,70
2017-07-20T16:27:55.203Z,70
2017-07-20T16:30:19.809Z,70
2017-07-20T16:32:44.361Z,70
2017-07-20T16:35:08.945Z,65
2017-07-20T16:37:33.494Z,65
2017-07-20T16:39:58.185Z,65
2017-07-20T16:42:22.869Z,60
2017-07-20T16:44:47.497Z,60
2017-07-20T16:47:12.078Z,60
2017-07-20T16:49:36.662Z,50
2017-07-20T16:52:01.354Z,40
2017-07-20T16:54:17.485Z,40
2017-07-20T16:56:42.149Z,40
2017-07-20T16:59:06.840Z,40
2017-07-20T17:01:31.421Z,40
2017-07-20T17:03:56.016Z,50
2017-07-20T17:06:20.743Z,50
2017-07-20T17:08:45.408Z,50
2017-07-20T17:11:09.999Z,50
2017-07-20T17:13:26.081Z,50
2017-07-20T17:15:50.706Z,55
2017-07-20T17:18:15.271Z,55
2017-07-20T17:20:39.885Z,55
2017-07-20T17:23:04.467Z,55
2017-07-20T17:25:29.049Z,55
2017-07-20T17:27:53.683Z,55
2017-07-20T17:30:18.385Z,55
2017-07-20T17:32:43.012Z,50
2017-07-20T17:35:07.609Z,45
2017-07-20T17:37:32.227Z,50
2017-07-20T17:39:48.390Z,50
2017-07-20T17:42:13.074Z,45
2017-07-20T17:44:37.750Z,35
2017-07-20T17:47:02.343Z,35
2017-07-20T17:49:18.410Z,35
2017-07-20T17:51:43.007Z,35
2017-07-20T17:56:09.194Z,30
2017-07-20T17:58:33.748Z,30
2017-07-20T18:00:58.281Z,30
2017-07-20T18:03:22.788Z,30
2017-07-20T18:05:38.874Z,30
2017-07-20T18:08:03.423Z,30
2017-07-20T18:10:19.496Z,25
2017-07-20T18:12:44.094Z,30
2017-07-20T18:15:08.698Z,30
2017-07-20T18:19:43.293Z,20
2017-07-20T18:22:07.840Z,20
2017-07-20T18:24:32.396Z,20
2017-07-20T18:26:56.939Z,20
2017-07-20T18:31:22.956Z,20
2017-07-20T18:33:47.464Z,15
2017-07-20T18:36:03.498Z,15
2017-07-20T18:38:28.065Z,15
2017-07-20T18:40:35.660Z,15
2017-07-20T18:42:51.746Z,15
2017-07-20T18:45:16.282Z,15
2017-07-20T18:47:32.356Z,10
2017-07-20T18:49:57.033Z,10
2017-07-20T18:52:21.610Z,10
2017-07-20T18:54:46.220Z,10
2017-07-20T18:57:10.681Z,5
2017-07-20T18:59:35.182Z,5
2017-07-20T19:01:51.267Z,5
2017-07-20T19:04:15.745Z,5
2017-07-20T19:08:50.828Z,0
2017-07-20T19:11:15.362Z,0
2017-07-20T19:13:39.883Z,0
2017-07-20T19:16:04.412Z,0
2017-07-20T19:18:28.904Z,0
2017-07-20T19:20:44.934Z,0
2017-07-20T19:23:09.439Z,0
2017-07-20T19:25:33.937Z,0
2017-07-20T19:27:58.376Z,0
2017-07-20T19:30:22.872Z,0
2017-07-20T19:32:47.359Z,0
2017-07-20T19:35:03.410Z,0
2017-07-20T19:37:27.922Z,0
2017-07-20T19:39:52.391Z,0
2017-07-20T19:42:08.525Z,0
2017-07-20T19:44:24.538Z,0
2017-07-20T19:46:40.527Z,0
2017-07-20T19:48:56.482Z,0
2017-07-20T19:51:20.951Z,0
2017-07-20T19:53:45.394Z,0
2017-07-20T19:56:09.868Z,0
2017-07-20T19:58:25.864Z,0
2017-07-20T20:00:41.861Z,0
2017-07-20T20:03:06.383Z,0
2017-07-20T20:05:30.868Z,0
2017-07-20T20:07:55.294Z,0
2017-07-20T20:10:19.732Z,0
2017-07-20T20:12:44.209Z,0
2017-07-20T20:15:08.688Z,0
2017-07-20T20:17:33.045Z,0
2017-07-20T20:19:57.497Z,0
2017-07-20T20:22:13.434Z,0
2017-07-20T20:24:37.907Z,0
2017-07-20T20:27:02.344Z,0
2017-07-20T20:31:04.057Z,0
2017-07-20T20:33:27.712Z,0
2017-07-20T20:35:52.143Z,0
2017-07-20T20:38:16.476Z,0
2017-07-20T20:40:40.925Z,0
2017-07-20T20:43:05.385Z,0
2017-07-20T20:45:29.713Z,0
2017-07-20T20:47:54.100Z,0
2017-07-20T20:50:18.612Z,0
2017-07-20T20:52:43.051Z,0
2017-07-20T20:57:09.001Z,0
2017-07-20T20:59:33.411Z,0
2017-07-20T21:01:57.849Z,0
2017-07-20T21:04:22.264Z,0
2017-07-20T21:08:48.225Z,0
2017-07-20T21:11:12.686Z,0
2017-07-20T21:13:29.161Z,0
2017-07-20T21:15:53.493Z,0
2017-07-20T21:18:17.879Z,0
2017-07-20T21:20:42.314Z,0
2017-07-20T21:23:06.826Z,0
2017-07-20T21:25:31.219Z,0
2017-07-20T21:27:55.709Z,0
2017-07-20T21:30:20.146Z,0
2017-07-20T21:32:44.507Z,0
2017-07-20T21:35:00.435Z,0
2017-07-20T21:37:24.785Z,0
2017-07-20T21:39:49.241Z,0
2017-07-20T21:42:13.670Z,0
2017-07-20T21:44:38.091Z,0
2017-07-20T21:47:02.507Z,0
2017-07-20T21:49:26.921Z,0
2017-07-20T21:53:41.311Z,0
2017-07-20T21:56:05.704Z,0
2017-07-20T21:58:21.634Z,0
2017-07-20T22:00:45.957Z,0
2017-07-20T22:03:10.326Z,0
2017-07-20T22:07:02.120Z,0
2017-07-20T22:09:26.641Z,0
2017-07-20T22:11:42.546Z,0
2017-07-20T22:14:06.904Z,0
2017-07-20T22:16:31.309Z,0
2017-07-20T22:18:47.241Z,0
2017-07-20T22:21:03.101Z,0
2017-07-20T22:23:27.433Z,0
2017-07-20T22:25:51.838Z,0
2017-07-20T22:28:07.696Z,0
2017-07-20T22:30:32.147Z,0
2017-07-20T22:34:57.896Z,0
2017-07-20T22:37:22.285Z,0
2017-07-20T22:39:46.560Z,0
2017-07-20T22:42:10.889Z,0
2017-07-20T22:44:26.755Z,0
2017-07-20T22:46:42.622Z,0
2017-07-20T22:49:06.897Z,0
2017-07-20T22:51:14.392Z,0
2017-07-20T22:53:30.383Z,0
2017-07-20T22:55:46.335Z,0
2017-07-20T22:58:10.666Z,0
2017-07-20T23:00:26.614Z,0
2017-07-20T23:02:50.887Z,0
2017-07-20T23:07:16.710Z,0
2017-07-20T23:09:41.074Z,0
2017-07-20T23:12:05.429Z,0
2017-07-20T23:14:29.853Z,0
2017-07-20T23:16:54.262Z,0
2017-07-20T23:19:10.180Z,0
2017-07-20T23:21:26.073Z,0
2017-07-20T23:23:50.378Z,0
2017-07-20T23:26:14.821Z,0
2017-07-20T23:28:39.206Z,0
2017-07-20T23:31:03.589Z,0
2017-07-20T23:33:27.929Z,0
2017-07-20T23:35:52.354Z,0
2017-07-20T23:38:08.305Z,0
2017-07-20T23:40:32.637Z,0
2017-07-20T23:42:57.016Z,0
2017-07-20T23:45:12.967Z,0
2017-07-20T23:47:28.839Z,0
2017-07-20T23:49:53.120Z,0
2017-07-20T23:52:17.457Z,0
2017-07-20T23:54:41.801Z,0
2017-07-20T23:57:06.128Z,0
2017-07-20T23:59:30.477Z,0
